Time;durP1;ratioP1;P1;durP2;ratioP2;P2;SDS_P1;SDS_P2;PMS_P1;PMS_P2;Temp;Humidity;BMP_temperature;BMP_pressure;BME280_temperature;BME280_humidity;BME280_pressure;Samples;Min_cycle;Max_cycle;Signal;HPM_P1;HPM_P2
2022/08/15 00:00:40;;;;;;;8.68;7.82;;;23.70;75.20;;;;;;5050044;28;20077;-47
2022/08/15 00:03:06;;;;;;;9.70;8.80;;;23.70;74.70;;;;;;5038548;28;20373;-50
2022/08/15 00:05:34;;;;;;;9.48;8.18;;;23.60;75.10;;;;;;5031231;28;20060;-51
2022/08/15 00:08:01;;;;;;;9.50;8.60;;;23.60;74.70;;;;;;5052275;28;20110;-51
2022/08/15 00:10:28;;;;;;;10.50;9.30;;;23.50;75.30;;;;;;5020772;28;20080;-49
2022/08/15 00:13:00;;;;;;;9.73;8.32;;;23.50;75.70;;;;;;5047514;28;20127;-46
2022/08/15 00:15:27;;;;;;;9.25;8.10;;;23.50;75.10;;;;;;5048023;28;20492;-47
2022/08/15 00:17:54;;;;;;;10.73;9.00;;;23.50;74.50;;;;;;5034332;28;20064;-50
2022/08/15 00:20:21;;;;;;;10.43;8.82;;;23.40;75.00;;;;;;5034454;28;20461;-48
2022/08/15 00:22:49;;;;;;;9.82;8.35;;;23.40;75.20;;;;;;5051406;28;20099;-50
2022/08/15 00:25:16;;;;;;;9.75;8.73;;;23.40;75.50;;;;;;5032389;28;20049;-46
2022/08/15 00:27:43;;;;;;;10.82;8.20;;;23.30;76.00;;;;;;5050317;28;20469;-52
2022/08/15 00:30:12;;;;;;;10.07;8.98;;;23.30;76.00;;;;;;5050965;28;20138;-48
2022/08/15 00:32:38;;;;;;;10.93;8.38;;;23.30;76.20;;;;;;5042885;28;20172;-44
2022/08/15 00:35:35;;;;;;;9.07;8.18;;;23.30;75.90;;;;;;5025723;28;20536;-50
2022/08/15 00:37:55;;;;;;;8.75;7.75;;;23.30;75.40;;;;;;5048485;28;20548;-48
2022/08/15 00:40:22;;;;;;;10.40;8.48;;;23.20;75.30;;;;;;5051086;28;20049;-49
2022/08/15 00:42:48;;;;;;;10.05;8.70;;;23.30;75.50;;;;;;5051775;28;20132;-50
2022/08/15 00:45:16;;;;;;;11.13;8.63;;;23.20;75.30;;;;;;5034125;28;20080;-45
2022/08/15 00:48:41;;;;;;;11.80;9.07;;;23.20;75.70;;;;;;5052023;28;20132;-47
2022/08/15 00:50:30;;;;;;;12.43;8.60;;;23.20;75.60;;;;;;5033520;28;20143;-47
2022/08/15 00:52:59;;;;;;;10.55;8.65;;;23.20;75.60;;;;;;5052382;28;20056;-46
2022/08/15 00:55:27;;;;;;;10.43;8.38;;;23.20;75.60;;;;;;5037877;28;20088;-38
2022/08/15 00:57:53;;;;;;;10.05;8.38;;;23.20;75.60;;;;;;5037812;28;20087;-48
2022/08/15 01:00:23;;;;;;;11.18;9.07;;;23.20;75.90;;;;;;5047397;28;20128;-49
2022/08/15 01:02:50;;;;;;;10.20;9.10;;;23.20;76.80;;;;;;5036331;28;20489;-47
2022/08/15 01:05:17;;;;;;;10.43;8.73;;;23.10;76.40;;;;;;5053867;28;20053;-50
2022/08/15 01:07:44;;;;;;;10.65;8.30;;;23.10;76.20;;;;;;5037185;28;20057;-47
2022/08/15 01:10:11;;;;;;;10.77;9.35;;;23.10;76.00;;;;;;5022440;28;20057;-47
2022/08/15 01:12:38;;;;;;;11.15;8.07;;;23.10;76.70;;;;;;5053660;28;20124;-50
2022/08/15 01:15:08;;;;;;;9.88;8.82;;;23.10;76.30;;;;;;5054041;28;20134;-48
2022/08/15 01:17:36;;;;;;;11.88;8.80;;;23.10;75.70;;;;;;5037645;28;20114;-47
2022/08/15 01:20:07;;;;;;;12.45;8.77;;;23.20;75.90;;;;;;5053402;28;20045;-50
2022/08/15 01:22:42;;;;;;;11.32;8.32;;;23.20;76.20;;;;;;5055129;28;20079;-48
2022/08/15 01:25:11;;;;;;;9.35;7.93;;;23.10;76.70;;;;;;5053931;28;20417;-50
2022/08/15 01:27:42;;;;;;;9.77;8.27;;;23.10;76.00;;;;;;5055452;28;20095;-49
2022/08/15 01:30:11;;;;;;;8.55;7.70;;;23.10;76.10;;;;;;5055139;28;20507;-50
2022/08/15 01:32:38;;;;;;;8.70;7.80;;;23.20;75.90;;;;;;5054779;28;20052;-49
2022/08/15 01:35:06;;;;;;;12.07;7.88;;;23.20;75.60;;;;;;5052442;28;20143;-43
2022/08/15 01:37:33;;;;;;;9.75;8.75;;;23.20;75.70;;;;;;5053674;28;20053;-42
2022/08/15 01:40:04;;;;;;;8.98;8.07;;;23.20;76.10;;;;;;5054339;28;20118;-47
2022/08/15 01:42:34;;;;;;;8.43;7.50;;;23.20;75.80;;;;;;5036669;28;20099;-45
2022/08/15 01:45:04;;;;;;;8.52;7.63;;;23.20;75.50;;;;;;5053291;28;20057;-47
2022/08/15 01:47:34;;;;;;;11.27;8.70;;;23.10;75.20;;;;;;5052452;28;20496;-51
2022/08/15 01:50:04;;;;;;;11.30;9.18;;;23.10;76.30;;;;;;5036313;28;20124;-46
2022/08/15 01:52:35;;;;;;;11.82;9.10;;;23.10;77.20;;;;;;5035697;28;20048;-51
2022/08/15 01:55:02;;;;;;;12.27;9.47;;;23.10;77.50;;;;;;5051306;28;20084;-51
2022/08/15 01:57:29;;;;;;;10.50;9.07;;;23.10;77.80;;;;;;5046922;28;20135;-48
2022/08/15 01:59:58;;;;;;;11.13;9.63;;;23.00;77.70;;;;;;5053299;28;20081;-48
2022/08/15 02:02:24;;;;;;;11.80;9.68;;;23.00;78.20;;;;;;5035801;28;20080;-45
2022/08/15 02:04:51;;;;;;;11.85;9.68;;;23.00;78.40;;;;;;5033913;28;20145;-46
2022/08/15 02:07:20;;;;;;;11.35;9.70;;;23.00;78.70;;;;;;5053928;28;20103;-45
2022/08/15 02:09:46;;;;;;;9.45;8.00;;;23.00;78.60;;;;;;5053610;28;20080;-46
2022/08/15 02:12:13;;;;;;;10.73;8.65;;;23.00;77.50;;;;;;5054500;28;20127;-47
2022/08/15 02:14:41;;;;;;;11.75;8.38;;;23.00;78.10;;;;;;5049484;28;20444;-44
2022/08/15 02:17:09;;;;;;;10.70;8.48;;;23.00;78.40;;;;;;5052556;28;20489;-45
2022/08/15 02:19:36;;;;;;;9.55;7.53;;;23.00;78.10;;;;;;5053684;28;20045;-46
2022/08/15 02:22:04;;;;;;;8.98;8.07;;;23.00;77.80;;;;;;5036569;28;20049;-45
2022/08/15 02:24:31;;;;;;;11.10;7.93;;;23.00;77.60;;;;;;5035774;28;20139;-48
2022/08/15 02:26:58;;;;;;;9.50;8.18;;;23.00;77.30;;;;;;5051688;28;20492;-48
2022/08/15 02:29:26;;;;;;;9.50;8.30;;;23.00;77.40;;;;;;5034921;28;20139;-43
2022/08/15 02:31:54;;;;;;;10.63;7.80;;;23.00;77.70;;;;;;5035654;28;20072;-47
2022/08/15 02:34:23;;;;;;;9.00;7.57;;;22.90;77.60;;;;;;5035734;28;20424;-47
2022/08/15 02:36:50;;;;;;;9.30;8.40;;;22.90;77.80;;;;;;5034421;28;20060;-45
2022/08/15 02:39:17;;;;;;;9.10;7.90;;;22.90;78.30;;;;;;5053023;28;20041;-46
2022/08/15 02:41:50;;;;;;;9.40;7.72;;;22.80;77.90;;;;;;5053210;28;20048;-37
2022/08/15 02:44:17;;;;;;;10.50;7.80;;;22.90;77.30;;;;;;5052173;28;20052;-47
2022/08/15 02:46:44;;;;;;;10.38;8.45;;;22.80;76.90;;;;;;5034709;28;20767;-45
2022/08/15 02:49:12;;;;;;;10.40;8.40;;;22.80;77.10;;;;;;5053050;28;20124;-44
2022/08/15 02:51:41;;;;;;;9.27;7.68;;;22.80;77.40;;;;;;5053065;28;20127;-45
2022/08/15 02:54:07;;;;;;;10.80;8.13;;;22.80;77.50;;;;;;5034575;28;20057;-44
2022/08/15 02:56:34;;;;;;;9.93;7.72;;;22.70;77.50;;;;;;5035733;28;20559;-47
2022/08/15 02:59:01;;;;;;;8.90;7.35;;;22.70;77.70;;;;;;5035647;28;20135;-42
2022/08/15 03:01:28;;;;;;;12.10;8.77;;;22.70;77.40;;;;;;5052817;28;20438;-46
2022/08/15 03:03:55;;;;;;;10.90;8.90;;;22.70;77.60;;;;;;5034035;28;20532;-50
2022/08/15 03:06:24;;;;;;;8.20;7.20;;;22.70;78.00;;;;;;5033758;28;20461;-50
2022/08/15 03:08:52;;;;;;;9.02;7.82;;;22.60;77.80;;;;;;5033621;28;20087;-49
2022/08/15 03:11:20;;;;;;;9.98;7.63;;;22.60;77.30;;;;;;5053409;28;20091;-50
2022/08/15 03:13:47;;;;;;;8.07;7.38;;;22.60;77.40;;;;;;5051706;28;20045;-52
2022/08/15 03:16:15;;;;;;;7.93;7.13;;;22.60;77.30;;;;;;5050939;28;20049;-48
2022/08/15 03:18:42;;;;;;;10.57;8.45;;;22.60;77.30;;;;;;5051516;28;20053;-45
2022/08/15 03:21:10;;;;;;;9.60;7.80;;;22.50;77.70;;;;;;5034910;28;20129;-48
2022/08/15 03:23:37;;;;;;;8.77;7.88;;;22.50;78.20;;;;;;5034156;28;20189;-46
2022/08/15 03:26:05;;;;;;;8.60;7.78;;;22.40;78.60;;;;;;5034536;28;20057;-44
2022/08/15 03:28:33;;;;;;;8.00;7.28;;;22.40;78.90;;;;;;5024453;28;20152;-42
2022/08/15 03:31:01;;;;;;;10.50;9.18;;;22.30;78.60;;;;;;5034013;28;20507;-51
2022/08/15 03:33:28;;;;;;;11.05;8.27;;;22.30;79.50;;;;;;5050985;28;20044;-42
2022/08/15 03:35:55;;;;;;;9.00;8.10;;;22.20;79.90;;;;;;5040689;28;20404;-47
2022/08/15 03:38:22;;;;;;;9.88;7.53;;;22.20;80.60;;;;;;5033150;28;20140;-45
2022/08/15 03:40:50;;;;;;;9.05;8.15;;;22.20;79.90;;;;;;5034596;28;20053;-45
2022/08/15 03:43:20;;;;;;;9.55;8.50;;;22.20;80.00;;;;;;5033322;28;20128;-45
2022/08/15 03:45:49;;;;;;;9.60;8.50;;;22.10;80.20;;;;;;5050557;28;20135;-43
2022/08/15 03:48:15;;;;;;;11.20;9.30;;;22.10;80.00;;;;;;5050138;28;20171;-48
2022/08/15 03:50:43;;;;;;;11.10;8.55;;;22.00;80.40;;;;;;5050863;28;20574;-46
2022/08/15 03:53:11;;;;;;;10.10;9.00;;;22.00;80.40;;;;;;5051612;28;20041;-44
2022/08/15 03:55:39;;;;;;;9.88;8.38;;;22.00;81.00;;;;;;5048641;28;20091;-46
2022/08/15 03:58:06;;;;;;;12.35;8.13;;;21.90;80.40;;;;;;5051933;28;20048;-41
2022/08/15 04:00:43;;;;;;;10.48;8.48;;;21.90;80.00;;;;;;5031450;28;20140;-42
2022/08/15 04:03:10;;;;;;;10.48;9.00;;;21.90;80.20;;;;;;5033533;28;20041;-41
2022/08/15 04:05:37;;;;;;;10.77;9.65;;;21.90;80.90;;;;;;5052173;28;20080;-45
2022/08/15 04:08:05;;;;;;;14.13;8.73;;;21.80;80.00;;;;;;5033622;28;20110;-46
2022/08/15 04:10:32;;;;;;;10.15;9.15;;;21.80;79.90;;;;;;5051350;28;20565;-51
2022/08/15 04:12:59;;;;;;;15.23;9.88;;;21.80;79.90;;;;;;5050766;28;20124;-41
2022/08/15 04:15:26;;;;;;;13.60;8.95;;;21.80;80.80;;;;;;5050534;28;20041;-45
2022/08/15 04:17:54;;;;;;;12.02;9.73;;;21.70;80.40;;;;;;5051460;28;20504;-47
2022/08/15 04:20:21;;;;;;;12.77;10.00;;;21.70;80.80;;;;;;5050127;28;20087;-43
2022/08/15 04:22:49;;;;;;;9.43;8.55;;;21.70;81.20;;;;;;5027765;28;20048;-47
2022/08/15 04:25:18;;;;;;;10.55;9.40;;;21.70;81.40;;;;;;5033698;28;20140;-39
2022/08/15 04:27:45;;;;;;;10.52;9.52;;;21.70;81.00;;;;;;5053684;28;20066;-45
2022/08/15 04:30:13;;;;;;;10.57;9.48;;;21.70;81.60;;;;;;5054703;28;20516;-45
2022/08/15 04:32:39;;;;;;;11.70;9.57;;;21.60;82.20;;;;;;5037978;28;20496;-45
2022/08/15 04:35:10;;;;;;;11.27;10.00;;;21.60;82.30;;;;;;5051051;28;20480;-46
2022/08/15 04:37:39;;;;;;;12.23;9.93;;;21.60;82.50;;;;;;5053861;28;20506;-44
2022/08/15 04:40:07;;;;;;;10.98;9.75;;;21.60;82.70;;;;;;5042127;28;20411;-39
2022/08/15 04:42:36;;;;;;;10.85;9.50;;;21.60;82.70;;;;;;5035201;28;20063;-42
2022/08/15 04:45:02;;;;;;;11.07;9.98;;;21.60;82.40;;;;;;5037577;28;20055;-46
2022/08/15 04:47:29;;;;;;;12.00;10.15;;;21.60;82.60;;;;;;5053673;28;20041;-45
2022/08/15 04:49:56;;;;;;;10.10;9.10;;;21.60;83.40;;;;;;5054523;28;20049;-45
2022/08/15 04:52:24;;;;;;;15.55;11.45;;;21.60;82.90;;;;;;5036520;28;20037;-39
2022/08/15 04:54:51;;;;;;;13.55;11.32;;;21.60;84.20;;;;;;5048099;28;20136;-45
2022/08/15 04:57:17;;;;;;;14.70;11.45;;;21.50;84.80;;;;;;5055400;28;20456;-45
2022/08/15 04:59:44;;;;;;;13.40;11.13;;;21.50;84.70;;;;;;5054768;28;20053;-46
2022/08/15 05:02:12;;;;;;;12.18;9.95;;;21.60;85.00;;;;;;5054385;28;20131;-42
2022/08/15 05:04:39;;;;;;;11.18;9.05;;;21.60;85.20;;;;;;5026702;28;20060;-40
2022/08/15 05:07:06;;;;;;;13.60;10.30;;;21.50;84.90;;;;;;5053490;28;20079;-48
2022/08/15 05:09:34;;;;;;;10.05;9.05;;;21.50;85.30;;;;;;5054762;28;20110;-45
2022/08/15 05:12:01;;;;;;;15.82;10.50;;;21.60;84.70;;;;;;5054323;28;20076;-45
2022/08/15 05:14:27;;;;;;;10.25;9.25;;;21.50;84.70;;;;;;5035351;28;20067;-45
2022/08/15 05:16:54;;;;;;;11.57;10.40;;;21.60;85.00;;;;;;5035390;28;20480;-44
2022/08/15 05:19:21;;;;;;;15.85;10.55;;;21.60;85.80;;;;;;5037078;28;20045;-45
2022/08/15 05:21:47;;;;;;;14.30;11.32;;;21.60;85.70;;;;;;5055161;28;20236;-43
2022/08/15 05:24:14;;;;;;;11.73;9.93;;;21.60;86.70;;;;;;5053597;28;20140;-41
2022/08/15 05:26:42;;;;;;;14.32;10.68;;;21.60;86.30;;;;;;5049642;28;20087;-42
2022/08/15 05:29:09;;;;;;;10.18;9.23;;;21.60;87.40;;;;;;5053054;28;20136;-44
2022/08/15 05:31:36;;;;;;;11.50;9.77;;;21.60;86.90;;;;;;5054260;28;20080;-43
2022/08/15 05:34:03;;;;;;;13.95;10.25;;;21.60;86.50;;;;;;5050796;28;20127;-43
2022/08/15 05:36:30;;;;;;;10.57;9.48;;;21.60;86.40;;;;;;5050341;28;20047;-42
2022/08/15 05:38:59;;;;;;;11.38;10.23;;;21.70;86.00;;;;;;5052230;28;20447;-46
2022/08/15 05:41:31;;;;;;;11.45;10.25;;;21.70;86.20;;;;;;5033647;28;20102;-48
2022/08/15 05:44:02;;;;;;;13.05;9.57;;;21.70;87.00;;;;;;5053381;28;20128;-48
2022/08/15 05:46:43;;;;;;;10.85;9.75;;;21.80;87.00;;;;;;5034253;28;20069;-48
2022/08/15 05:49:18;;;;;;;12.77;10.73;;;21.80;86.40;;;;;;5052663;28;20072;-43
2022/08/15 05:51:47;;;;;;;12.20;10.90;;;21.80;87.30;;;;;;5053068;28;20135;-46
2022/08/15 05:54:17;;;;;;;14.32;10.50;;;21.90;88.20;;;;;;5054949;28;20075;-49
2022/08/15 05:56:56;;;;;;;12.98;10.75;;;21.90;88.00;;;;;;5048936;28;20100;-44
2022/08/15 05:59:28;;;;;;;12.38;9.95;;;21.90;87.80;;;;;;5053527;28;20065;-45
2022/08/15 06:01:56;;;;;;;15.43;10.77;;;22.00;87.20;;;;;;5030732;28;20049;-40
2022/08/15 06:04:44;;;;;;;15.23;10.98;;;22.00;87.70;;;;;;5035908;28;20041;-45
2022/08/15 06:07:12;;;;;;;13.52;11.30;;;22.10;87.90;;;;;;5050003;28;20069;-45
2022/08/15 06:09:40;;;;;;;12.60;11.35;;;22.20;89.30;;;;;;5053420;28;20052;-48
2022/08/15 06:12:09;;;;;;;13.07;10.75;;;22.20;89.00;;;;;;5045925;28;20041;-39
2022/08/15 06:14:38;;;;;;;17.52;11.35;;;22.30;89.30;;;;;;5052141;28;20049;-44
2022/08/15 06:17:07;;;;;;;13.15;11.75;;;22.40;89.20;;;;;;5033524;28;20132;-43
2022/08/15 06:19:38;;;;;;;14.15;11.27;;;22.40;89.10;;;;;;5035570;28;20064;-45
2022/08/15 06:22:17;;;;;;;13.15;11.05;;;22.40;89.10;;;;;;5051788;28;20573;-44
2022/08/15 06:24:49;;;;;;;13.05;11.65;;;22.50;88.90;;;;;;5050514;28;20045;-45
2022/08/15 06:27:19;;;;;;;14.15;11.90;;;22.50;88.80;;;;;;5051965;28;20081;-45
2022/08/15 06:29:59;;;;;;;18.90;12.40;;;22.50;88.90;;;;;;5053105;28;20136;-43
2022/08/15 06:32:32;;;;;;;13.75;12.13;;;22.50;88.80;;;;;;5051245;28;20045;-50
2022/08/15 06:35:02;;;;;;;13.82;10.07;;;22.50;89.70;;;;;;5035418;28;20088;-47
2022/08/15 06:37:33;;;;;;;12.55;10.43;;;22.50;88.20;;;;;;5044798;28;20131;-39
2022/08/15 06:40:08;;;;;;;14.67;11.37;;;22.50;88.20;;;;;;5047531;28;20496;-45
2022/08/15 06:42:36;;;;;;;14.23;11.52;;;22.60;88.70;;;;;;5050056;28;20303;-43
2022/08/15 06:45:08;;;;;;;14.88;12.88;;;22.60;89.50;;;;;;5049758;28;20048;-47
2022/08/15 06:47:35;;;;;;;15.15;11.98;;;22.70;88.80;;;;;;5022332;28;20064;-45
2022/08/15 06:50:07;;;;;;;14.10;12.50;;;22.70;88.70;;;;;;5050789;28;20072;-46
2022/08/15 06:52:34;;;;;;;15.05;12.32;;;22.80;88.70;;;;;;5035210;28;20037;-48
2022/08/15 06:55:00;;;;;;;13.70;12.00;;;22.90;88.80;;;;;;5052438;28;20547;-49
2022/08/15 06:57:32;;;;;;;14.98;12.45;;;23.00;88.90;;;;;;5052202;28;20570;-49
2022/08/15 07:00:06;;;;;;;16.10;12.48;;;23.10;88.60;;;;;;5052596;28;20083;-47
2022/08/15 07:02:49;;;;;;;14.73;12.57;;;23.20;88.70;;;;;;5048532;28;20048;-48
2022/08/15 07:05:20;;;;;;;13.50;12.18;;;23.30;88.20;;;;;;5052176;28;20080;-45
2022/08/15 07:07:50;;;;;;;15.47;11.70;;;23.40;88.40;;;;;;5051107;28;20076;-48
2022/08/15 07:10:27;;;;;;;13.90;11.88;;;23.60;88.00;;;;;;5029855;28;20448;-47
2022/08/15 07:12:58;;;;;;;17.65;10.88;;;23.70;87.70;;;;;;5051729;28;20056;-50
2022/08/15 07:15:29;;;;;;;14.48;11.52;;;24.00;87.10;;;;;;5049659;28;20124;-45
2022/08/15 07:18:00;;;;;;;16.33;10.85;;;24.10;85.50;;;;;;5028614;28;20467;-48
2022/08/15 07:20:27;;;;;;;14.75;12.38;;;24.20;84.00;;;;;;5025170;28;20037;-47
2022/08/15 07:22:54;;;;;;;16.25;11.48;;;24.40;83.10;;;;;;5051116;28;20057;-46
2022/08/15 07:25:29;;;;;;;13.73;10.80;;;24.50;82.70;;;;;;5055486;28;20052;-47
2022/08/15 07:27:57;;;;;;;15.05;11.43;;;24.60;81.90;;;;;;5035077;28;20060;-51
2022/08/15 07:30:35;;;;;;;15.55;10.82;;;24.70;81.90;;;;;;5051621;28;20056;-50
2022/08/15 07:33:02;;;;;;;15.00;12.25;;;24.80;81.70;;;;;;5047804;28;20152;-47
2022/08/15 07:35:30;;;;;;;14.95;11.70;;;24.90;80.80;;;;;;5052039;28;20065;-46
2022/08/15 07:37:58;;;;;;;15.25;12.00;;;24.90;80.60;;;;;;5051766;28;20092;-48
2022/08/15 07:40:27;;;;;;;16.38;11.40;;;25.00;79.80;;;;;;5034547;28;20057;-49
2022/08/15 07:42:54;;;;;;;15.73;11.60;;;25.00;79.80;;;;;;5052659;28;20127;-42
2022/08/15 07:45:26;;;;;;;17.92;12.25;;;25.10;79.90;;;;;;5049963;28;20772;-48
2022/08/15 07:47:57;;;;;;;13.98;10.90;;;25.20;80.00;;;;;;5046220;28;20472;-48
2022/08/15 07:50:31;;;;;;;16.00;12.48;;;25.30;79.90;;;;;;5032144;28;20049;-49
2022/08/15 07:53:04;;;;;;;19.75;13.52;;;25.40;79.70;;;;;;5057217;28;20053;-45
2022/08/15 07:55:32;;;;;;;14.57;12.82;;;25.50;79.70;;;;;;5034996;28;20567;-48
2022/08/15 07:58:02;;;;;;;20.27;13.30;;;25.50;80.10;;;;;;5029602;28;20053;-49
2022/08/15 08:00:29;;;;;;;17.33;12.75;;;25.60;79.40;;;;;;5025176;28;20078;-49
2022/08/15 08:03:00;;;;;;;14.60;12.50;;;25.70;79.20;;;;;;5027669;28;20428;-49
2022/08/15 08:05:32;;;;;;;19.85;12.80;;;25.70;78.70;;;;;;5029927;28;20050;-49
2022/08/15 08:08:00;;;;;;;17.10;12.10;;;25.80;78.80;;;;;;5029402;28;20471;-49
2022/08/15 08:10:30;;;;;;;17.73;13.40;;;25.80;79.20;;;;;;5016314;28;20045;-51
2022/08/15 08:13:13;;;;;;;14.50;11.60;;;25.90;78.90;;;;;;5030314;28;20084;-48
2022/08/15 08:15:42;;;;;;;17.42;12.20;;;25.90;78.70;;;;;;5029751;28;20168;-51
2022/08/15 08:18:14;;;;;;;14.65;11.77;;;26.00;78.70;;;;;;5030095;28;20140;-48
2022/08/15 08:20:42;;;;;;;15.73;13.38;;;26.10;78.20;;;;;;5030421;28;20460;-47
2022/08/15 08:23:12;;;;;;;18.75;12.23;;;26.20;77.70;;;;;;5028588;28;20045;-48
2022/08/15 08:25:43;;;;;;;18.65;12.75;;;26.20;77.70;;;;;;5029894;28;20506;-47
2022/08/15 08:28:17;;;;;;;14.63;13.02;;;26.30;77.60;;;;;;5030148;28;20137;-50
2022/08/15 08:30:48;;;;;;;14.10;12.25;;;26.30;77.00;;;;;;5028992;28;20061;-46
2022/08/15 08:33:20;;;;;;;12.77;11.48;;;26.30;77.10;;;;;;5030403;28;20129;-49
2022/08/15 08:35:52;;;;;;;18.42;13.43;;;26.50;77.80;;;;;;5024775;28;20061;-45
2022/08/15 08:38:25;;;;;;;22.33;13.77;;;26.70;76.80;;;;;;5030926;28;20094;-51
2022/08/15 08:43:42;;;;;;;14.23;12.77;;;26.90;75.50;;;;;;5031883;28;20478;-49
2022/08/15 08:46:15;;;;;;;13.80;12.50;;;27.00;74.80;;;;;;5030915;28;20096;-49
2022/08/15 08:48:47;;;;;;;18.73;13.70;;;27.10;74.50;;;;;;5032396;28;20401;-49
2022/08/15 08:51:31;;;;;;;16.17;13.05;;;27.20;74.00;;;;;;5031134;28;20436;-51
2022/08/15 08:54:05;;;;;;;17.27;12.02;;;27.40;73.90;;;;;;5032140;28;20088;-49
2022/08/15 08:56:34;;;;;;;17.33;12.85;;;27.50;73.60;;;;;;5047118;28;20059;-42
2022/08/15 08:59:03;;;;;;;18.33;14.43;;;27.70;72.90;;;;;;5030405;28;20080;-50
2022/08/15 09:01:31;;;;;;;21.20;13.13;;;27.80;72.10;;;;;;5052079;28;20385;-51
2022/08/15 09:04:02;;;;;;;16.88;14.55;;;27.80;71.90;;;;;;5034309;28;20191;-50
2022/08/15 09:06:32;;;;;;;14.30;12.80;;;27.90;71.00;;;;;;5051016;28;20049;-50
2022/08/15 09:09:04;;;;;;;18.98;13.45;;;28.10;71.20;;;;;;5052218;28;20088;-51
2022/08/15 09:11:33;;;;;;;17.73;13.07;;;28.20;70.90;;;;;;5052150;28;20448;-51
2022/08/15 09:14:04;;;;;;;19.38;15.60;;;28.20;70.90;;;;;;5054486;28;20139;-50
2022/08/15 09:16:31;;;;;;;;;;;28.20;70.10;;;;;;5055709;28;20045;-47
2022/08/15 09:19:02;;;;;;;14.48;12.90;;;28.10;70.60;;;;;;5055334;28;19921;-47
2022/08/15 09:21:28;;;;;;;18.00;14.68;;;28.20;70.60;;;;;;5038104;28;20087;-48
2022/08/15 09:23:56;;;;;;;16.13;12.10;;;28.20;70.20;;;;;;5055388;28;20526;-47
2022/08/15 09:26:34;;;;;;;18.58;12.82;;;28.30;70.60;;;;;;5054723;28;20053;-50
2022/08/15 09:29:06;;;;;;;17.52;14.82;;;28.50;70.10;;;;;;5054725;28;20053;-50
2022/08/15 09:31:35;;;;;;;24.13;14.80;;;28.70;68.80;;;;;;5037672;28;20128;-48
2022/08/15 09:34:18;;;;;;;17.70;14.45;;;28.70;68.40;;;;;;5036347;28;20469;-51
2022/08/15 09:37:00;;;;;;;20.58;14.57;;;28.80;68.00;;;;;;5054461;28;20053;-51
2022/08/15 09:39:52;;;;;;;16.80;14.50;;;28.70;68.20;;;;;;5037347;28;20052;-51
2022/08/15 09:42:28;;;;;;;15.55;14.02;;;28.60;68.70;;;;;;5037660;28;20048;-51
2022/08/15 09:45:04;;;;;;;16.85;15.05;;;28.40;69.30;;;;;;5035905;28;20461;-47
2022/08/15 09:48:00;;;;;;;19.52;13.52;;;28.40;69.50;;;;;;5055351;28;20049;-47
2022/08/15 09:50:58;;;;;;;21.33;16.05;;;28.30;69.70;;;;;;5054893;28;20053;-48
2022/08/15 09:53:30;;;;;;;23.90;17.30;;;28.20;69.60;;;;;;5036731;28;20048;-51
2022/08/15 09:56:02;;;;;;;19.02;16.95;;;28.10;69.50;;;;;;5054896;28;20059;-47
2022/08/15 09:58:31;;;;;;;22.48;16.98;;;28.00;69.70;;;;;;5054792;28;20102;-48
2022/08/15 10:01:03;;;;;;;23.38;16.25;;;27.90;69.90;;;;;;5054748;28;20081;-51
2022/08/15 10:03:52;;;;;;;19.80;17.13;;;27.90;70.30;;;;;;5053925;28;20060;-49
2022/08/15 10:06:23;;;;;;;22.00;15.13;;;27.90;70.20;;;;;;5043071;28;20077;-50
2022/08/15 10:09:14;;;;;;;24.55;17.88;;;27.90;70.60;;;;;;5054665;28;20093;-51
2022/08/15 10:11:58;;;;;;;;;;;28.00;70.50;;;;;;5054967;28;20063;-45
2022/08/15 10:14:26;;;;;;;18.30;16.10;;;27.90;70.70;;;;;;5053734;28;20011;-48
2022/08/15 10:16:54;;;;;;;19.00;14.98;;;27.90;70.80;;;;;;5036820;28;20098;-49
2022/08/15 10:19:30;;;;;;;21.35;16.52;;;28.00;70.90;;;;;;5054421;28;20129;-50
2022/08/15 10:22:00;;;;;;;21.27;17.27;;;28.00;70.90;;;;;;5054251;28;20504;-49
2022/08/15 10:24:29;;;;;;;23.75;17.38;;;28.00;70.70;;;;;;5052803;28;20045;-49
2022/08/15 10:27:12;;;;;;;19.80;17.55;;;28.00;71.00;;;;;;5054456;28;20076;-48
2022/08/15 10:29:40;;;;;;;23.00;14.60;;;28.00;71.00;;;;;;5036636;28;20125;-48
2022/08/15 10:32:07;;;;;;;19.35;14.80;;;27.90;71.40;;;;;;5036264;28;20107;-50
2022/08/15 10:34:37;;;;;;;20.60;14.95;;;27.90;72.20;;;;;;5052713;28;20124;-47
2022/08/15 10:37:17;;;;;;;23.63;16.23;;;27.90;72.80;;;;;;5036706;28;20049;-50
2022/08/15 10:39:57;;;;;;;14.35;12.95;;;27.90;73.40;;;;;;5054212;28;20057;-43
2022/08/15 10:42:28;;;;;;;16.90;14.25;;;27.80;73.20;;;;;;5036215;28;20048;-43
2022/08/15 10:44:58;;;;;;;13.75;12.20;;;27.70;72.90;;;;;;5052973;28;20481;-46
2022/08/15 10:47:27;;;;;;;16.25;13.88;;;27.60;73.30;;;;;;5053800;28;20136;-43
2022/08/15 10:50:01;;;;;;;17.98;16.15;;;27.50;73.70;;;;;;5036414;28;20141;-49
2022/08/15 10:52:36;;;;;;;15.15;13.25;;;27.60;73.60;;;;;;5053861;28;20088;-46
2022/08/15 10:55:14;;;;;;;14.88;13.38;;;27.50;73.20;;;;;;5053369;28;20140;-44
2022/08/15 10:57:47;;;;;;;17.83;14.07;;;27.50;73.70;;;;;;5033623;28;20390;-49
2022/08/15 11:00:16;;;;;;;16.98;13.95;;;27.50;74.90;;;;;;5016540;28;20057;-48
2022/08/15 11:02:47;;;;;;;13.18;11.82;;;27.40;75.30;;;;;;5019902;28;20086;-50
2022/08/15 11:05:17;;;;;;;25.42;16.55;;;27.40;75.90;;;;;;5036000;28;20053;-48
2022/08/15 11:07:48;;;;;;;18.08;11.60;;;27.40;76.00;;;;;;5052556;28;20087;-49
2022/08/15 11:10:17;;;;;;;19.73;14.40;;;27.50;75.50;;;;;;5035649;28;20413;-48
2022/08/15 11:12:45;;;;;;;18.15;14.18;;;27.50;75.60;;;;;;5035726;28;20488;-47
2022/08/15 11:15:15;;;;;;;19.65;13.95;;;27.60;75.70;;;;;;5035672;28;20053;-46
2022/08/15 11:17:45;;;;;;;18.07;14.50;;;27.70;75.60;;;;;;5052817;28;20130;-47
2022/08/15 11:20:15;;;;;;;18.63;13.40;;;27.70;75.00;;;;;;5053349;28;20049;-43
2022/08/15 11:22:50;;;;;;;17.58;14.32;;;27.70;74.80;;;;;;5053335;28;20084;-48
2022/08/15 11:25:19;;;;;;;14.50;12.98;;;27.80;75.20;;;;;;5053394;28;20052;-46
2022/08/15 11:27:58;;;;;;;14.88;13.35;;;27.70;75.00;;;;;;5033650;28;20095;-46
2022/08/15 11:30:25;;;;;;;18.73;12.48;;;27.80;74.80;;;;;;5053187;28;20048;-51
2022/08/15 11:32:52;;;;;;;13.52;12.05;;;27.80;74.40;;;;;;5050449;28;20457;-50
2022/08/15 11:35:21;;;;;;;13.32;11.95;;;27.80;73.40;;;;;;5052934;28;20049;-47
2022/08/15 11:37:49;;;;;;;12.70;11.43;;;27.80;73.60;;;;;;5051762;28;20147;-51
2022/08/15 11:40:25;;;;;;;15.43;13.43;;;27.90;73.70;;;;;;5053168;28;20572;-49
2022/08/15 11:42:52;;;;;;;15.30;13.70;;;28.00;74.30;;;;;;5053177;28;20499;-47
2022/08/15 11:45:20;;;;;;;17.77;15.68;;;28.10;74.50;;;;;;5052841;28;20136;-44
2022/08/15 11:47:48;;;;;;;20.15;13.93;;;28.40;74.40;;;;;;5034510;28;20136;-44
2022/08/15 11:50:23;;;;;;;22.38;15.95;;;28.60;74.20;;;;;;5052781;28;20374;-43
2022/08/15 11:52:54;;;;;;;22.17;15.68;;;28.90;73.50;;;;;;5052873;28;20445;-50
2022/08/15 11:55:23;;;;;;;13.43;12.02;;;29.00;73.10;;;;;;5035181;28;20049;-47
2022/08/15 11:57:52;;;;;;;17.35;11.38;;;29.20;71.70;;;;;;5034333;28;20056;-48
2022/08/15 12:00:24;;;;;;;18.75;14.25;;;29.30;71.20;;;;;;5052698;28;20056;-48
2022/08/15 12:02:51;;;;;;;17.17;15.35;;;29.40;70.70;;;;;;5034827;28;20048;-48
2022/08/15 12:05:26;;;;;;;21.25;16.00;;;29.50;70.50;;;;;;5052649;28;20140;-46
2022/08/15 12:07:56;;;;;;;17.80;13.57;;;29.50;70.70;;;;;;5034267;28;20412;-48
2022/08/15 12:10:28;;;;;;;21.75;15.75;;;29.50;71.30;;;;;;5052640;28;20045;-51
2022/08/15 12:12:55;;;;;;;19.08;17.13;;;29.60;72.10;;;;;;5034955;28;20382;-49
2022/08/15 12:15:23;;;;;;;21.33;17.80;;;29.70;71.90;;;;;;5034850;28;20541;-46
2022/08/15 12:18:11;;;;;;;21.90;17.45;;;29.80;71.80;;;;;;5052285;28;20053;-39
2022/08/15 12:20:45;;;;;;;18.13;16.30;;;29.90;72.00;;;;;;5052004;28;20409;-47
2022/08/15 12:23:22;;;;;;;21.77;16.33;;;29.90;72.30;;;;;;5052458;28;20049;-46
2022/08/15 12:25:51;;;;;;;20.25;18.15;;;30.00;72.50;;;;;;5034404;28;20052;-48
2022/08/15 12:28:18;;;;;;;21.75;16.52;;;30.00;72.40;;;;;;5034043;28;20059;-51
2022/08/15 12:30:46;;;;;;;21.25;17.92;;;29.90;72.40;;;;;;5052395;28;20053;-47
2022/08/15 12:33:13;;;;;;;21.52;18.60;;;29.90;72.80;;;;;;5052588;28;20053;-46
2022/08/15 12:35:40;;;;;;;19.20;17.05;;;29.80;72.90;;;;;;5034758;28;20076;-48
2022/08/15 12:38:06;;;;;;;21.38;16.83;;;29.70;73.10;;;;;;5052445;28;20204;-50
2022/08/15 12:40:34;;;;;;;19.05;14.35;;;29.70;73.30;;;;;;5050873;28;20053;-48
2022/08/15 12:43:01;;;;;;;18.30;12.60;;;29.70;72.80;;;;;;5052576;28;20049;-51
2022/08/15 12:45:28;;;;;;;17.23;13.35;;;29.60;72.10;;;;;;5052225;28;20091;-46
2022/08/15 12:47:55;;;;;;;12.50;10.35;;;29.60;71.70;;;;;;5035677;28;20132;-50
2022/08/15 12:50:21;;;;;;;16.20;12.98;;;29.60;71.80;;;;;;5055413;28;20504;-44